createdAt,value
2018-05-21T00:00:49.097Z,55.66
2018-05-21T00:03:16.624Z,55.42
2018-05-21T00:05:44.167Z,57.23
2018-05-21T00:08:11.714Z,56.35
2018-05-21T00:10:39.395Z,55.99
2018-05-21T00:13:06.923Z,54.84
2018-05-21T00:15:34.489Z,55.68
2018-05-21T00:18:01.983Z,54.77
2018-05-21T00:20:29.575Z,56.88
2018-05-21T00:22:57.173Z,56.45
2018-05-21T00:25:24.664Z,60.89
2018-05-21T00:27:53.154Z,57.84
2018-05-21T00:30:20.678Z,56.73
2018-05-21T00:32:48.197Z,57.54
2018-05-21T00:35:15.784Z,55.53
2018-05-21T00:37:43.342Z,56.90
2018-05-21T00:40:10.885Z,57.55
2018-05-21T00:42:39.496Z,56.51
2018-05-21T00:45:07.099Z,58.26
2018-05-21T00:47:35.182Z,58.84
2018-05-21T00:50:02.731Z,56.92
2018-05-21T00:52:30.496Z,57.50
2018-05-21T00:55:09.991Z,57.30
2018-05-21T00:57:37.662Z,60.02
2018-05-21T01:00:05.248Z,58.01
2018-05-21T01:02:33.029Z,57.48
2018-05-21T01:05:00.564Z,57.15
2018-05-21T01:07:28.106Z,58.38
2018-05-21T01:09:55.640Z,55.71
2018-05-21T01:12:24.114Z,55.96
2018-05-21T01:14:51.676Z,56.16
2018-05-21T01:17:19.409Z,55.70
2018-05-21T01:19:46.962Z,56.06
2018-05-21T01:22:14.559Z,57.98
2018-05-21T01:24:42.112Z,58.18
2018-05-21T01:27:09.667Z,58.55
2018-05-21T01:29:37.237Z,59.63
2018-05-21T01:32:04.788Z,58.98
2018-05-21T01:34:32.302Z,58.85
2018-05-21T01:36:59.886Z,57.61
2018-05-21T01:39:27.426Z,58.10
2018-05-21T01:41:54.949Z,58.88
2018-05-21T01:44:22.479Z,58.46
2018-05-21T01:46:50.016Z,58.17
2018-05-21T01:49:17.545Z,58.01
2018-05-21T01:51:45.101Z,58.13
2018-05-21T01:54:12.677Z,59.10
2018-05-21T01:56:40.229Z,59.15
2018-05-21T01:59:07.784Z,61.33
2018-05-21T02:01:35.336Z,60.71
2018-05-21T02:04:02.881Z,60.73
2018-05-21T02:06:30.438Z,61.14
2018-05-21T02:08:57.996Z,60.43
2018-05-21T02:11:25.511Z,59.67
2018-05-21T02:13:53.135Z,60.29
2018-05-21T02:16:20.659Z,60.49
2018-05-21T02:18:48.212Z,61.28
2018-05-21T02:21:15.812Z,61.46
2018-05-21T02:23:43.308Z,62.27
2018-05-21T02:26:10.841Z,62.38
2018-05-21T02:28:38.376Z,62.71
2018-05-21T02:31:05.915Z,63.13
2018-05-21T02:33:33.500Z,64.18
2018-05-21T02:36:01.071Z,63.37
2018-05-21T02:38:28.620Z,62.38
2018-05-21T02:40:56.639Z,63.00
2018-05-21T02:43:24.197Z,62.98
2018-05-21T02:45:51.730Z,63.82
2018-05-21T02:48:19.243Z,64.06
2018-05-21T02:50:46.789Z,62.84
2018-05-21T02:53:14.420Z,62.95
2018-05-21T02:55:41.986Z,63.48
2018-05-21T02:58:09.550Z,62.70
2018-05-21T03:00:37.071Z,63.76
2018-05-21T03:03:04.600Z,63.67
2018-05-21T03:05:32.175Z,62.88
2018-05-21T03:07:59.732Z,62.96
2018-05-21T03:10:27.228Z,63.70
2018-05-21T03:12:54.828Z,65.06
2018-05-21T03:15:22.375Z,65.80
2018-05-21T03:17:49.925Z,65.53
2018-05-21T03:20:17.513Z,65.04
2018-05-21T03:22:45.069Z,67.82
2018-05-21T03:25:12.641Z,66.50
2018-05-21T03:27:40.675Z,65.40
2018-05-21T03:30:08.222Z,66.44
2018-05-21T03:32:35.793Z,65.04
2018-05-21T03:35:03.329Z,64.28
2018-05-21T03:37:30.879Z,64.36
2018-05-21T03:39:58.458Z,64.20
2018-05-21T03:42:25.990Z,65.35
2018-05-21T03:44:53.630Z,65.47
2018-05-21T03:47:21.257Z,64.72
2018-05-21T03:49:48.875Z,64.19
2018-05-21T03:52:16.427Z,64.36
2018-05-21T03:54:44.034Z,65.17
2018-05-21T03:57:11.644Z,66.01
2018-05-21T03:59:50.905Z,65.11
2018-05-21T04:02:30.315Z,65.42
2018-05-21T04:04:58.668Z,64.46
2018-05-21T04:07:26.204Z,65.36
2018-05-21T04:09:53.774Z,65.46
2018-05-21T04:12:21.336Z,65.43
2018-05-21T04:14:48.858Z,64.68
2018-05-21T04:17:16.448Z,66.24
2018-05-21T04:19:43.996Z,65.41
2018-05-21T04:22:11.503Z,65.72
2018-05-21T04:24:39.061Z,64.30
2018-05-21T04:27:06.602Z,63.74
2018-05-21T04:29:34.202Z,65.02
2018-05-21T04:32:01.862Z,62.87
2018-05-21T04:34:29.405Z,63.91
2018-05-21T04:36:56.987Z,64.03
2018-05-21T04:39:24.550Z,63.83
2018-05-21T04:41:52.081Z,62.35
2018-05-21T04:44:19.689Z,62.40
2018-05-21T04:46:47.218Z,62.51
2018-05-21T04:49:14.820Z,61.38
2018-05-21T04:51:42.370Z,61.92
2018-05-21T04:54:09.893Z,61.93
2018-05-21T04:56:37.416Z,62.56
2018-05-21T04:59:05.003Z,61.30
2018-05-21T05:01:32.577Z,61.68
2018-05-21T05:04:00.140Z,61.07
2018-05-21T05:06:27.683Z,60.61
2018-05-21T05:08:55.249Z,60.14
2018-05-21T05:11:22.781Z,57.64
2018-05-21T05:13:50.315Z,58.18
2018-05-21T05:16:17.859Z,56.38
2018-05-21T05:18:45.505Z,56.29
2018-05-21T05:21:13.126Z,57.24
2018-05-21T05:23:41.224Z,55.81
2018-05-21T05:26:08.762Z,54.79
2018-05-21T05:28:36.365Z,57.58
2018-05-21T05:31:03.995Z,54.68
2018-05-21T05:33:31.515Z,54.97
2018-05-21T05:35:59.123Z,52.35
2018-05-21T05:38:26.639Z,53.81
2018-05-21T05:40:54.222Z,54.84
2018-05-21T05:43:22.040Z,53.68
2018-05-21T05:45:49.563Z,53.26
2018-05-21T05:48:17.097Z,54.90
2018-05-21T05:50:44.656Z,54.46
2018-05-21T05:53:12.225Z,54.13
2018-05-21T05:55:39.777Z,52.88
2018-05-21T05:58:07.402Z,51.81
2018-05-21T06:00:34.973Z,51.24
2018-05-21T06:03:02.523Z,52.04
2018-05-21T06:05:30.061Z,52.42
2018-05-21T06:07:57.599Z,52.00
2018-05-21T06:10:25.128Z,52.90
2018-05-21T06:12:52.714Z,50.66
2018-05-21T06:15:20.286Z,52.07
2018-05-21T06:17:47.855Z,51.14
2018-05-21T06:20:15.454Z,50.68
2018-05-21T06:22:43.080Z,51.68
2018-05-21T06:25:10.679Z,51.47
2018-05-21T06:27:38.351Z,50.65
2018-05-21T06:30:06.296Z,56.99
2018-05-21T06:32:33.880Z,55.15
2018-05-21T06:35:01.471Z,48.68
2018-05-21T06:37:29.012Z,48.30
2018-05-21T06:39:56.554Z,54.42
2018-05-21T06:42:24.126Z,46.81
2018-05-21T06:44:51.659Z,46.31
2018-05-21T06:47:19.286Z,47.31
2018-05-21T06:49:46.830Z,47.87
2018-05-21T06:52:14.389Z,46.21
2018-05-21T06:54:41.964Z,48.54
2018-05-21T06:57:09.495Z,49.78
2018-05-21T06:59:37.053Z,47.08
2018-05-21T07:02:04.595Z,53.04
2018-05-21T07:04:32.226Z,48.69
2018-05-21T07:06:59.861Z,48.10
2018-05-21T07:09:27.551Z,49.27
2018-05-21T07:11:55.411Z,51.94
2018-05-21T07:14:23.007Z,51.89
2018-05-21T07:16:50.722Z,50.12
2018-05-21T07:19:18.471Z,47.58
2018-05-21T07:21:46.153Z,50.12
2018-05-21T07:24:13.788Z,45.75
2018-05-21T07:26:41.602Z,46.88
2018-05-21T07:29:09.218Z,46.95
2018-05-21T07:31:36.882Z,46.83
2018-05-21T07:34:04.500Z,50.91
2018-05-21T07:36:32.025Z,49.41
2018-05-21T07:38:59.649Z,47.29
2018-05-21T07:41:27.303Z,43.92
2018-05-21T07:43:54.846Z,44.36
2018-05-21T07:46:22.385Z,44.01
2018-05-21T07:48:50.031Z,45.38
2018-05-21T07:51:17.758Z,46.21
2018-05-21T07:53:46.399Z,45.70
2018-05-21T07:56:13.956Z,43.49
2018-05-21T07:58:42.574Z,47.31
2018-05-21T08:01:10.153Z,42.12
2018-05-21T08:03:37.854Z,43.58
2018-05-21T08:06:05.518Z,41.37
2018-05-21T08:08:33.097Z,41.97
2018-05-21T08:11:00.717Z,46.33
2018-05-21T08:13:28.389Z,46.43
2018-05-21T08:15:55.983Z,46.07
2018-05-21T08:18:23.597Z,43.51
2018-05-21T08:20:51.188Z,41.75
2018-05-21T08:23:18.727Z,40.51
2018-05-21T08:25:46.310Z,41.04
2018-05-21T08:28:13.899Z,42.08
2018-05-21T08:30:41.451Z,41.62
2018-05-21T08:33:08.969Z,49.36
2018-05-21T08:35:36.603Z,43.00
2018-05-21T08:38:04.203Z,45.88
2018-05-21T08:40:31.757Z,43.11
2018-05-21T08:42:59.612Z,48.52
2018-05-21T08:45:27.214Z,46.21
2018-05-21T08:47:54.857Z,47.78
2018-05-21T08:50:22.463Z,46.79
2018-05-21T08:52:50.073Z,44.88
2018-05-21T08:55:17.729Z,44.95
2018-05-21T08:57:45.302Z,44.88
2018-05-21T09:00:12.812Z,40.62
2018-05-21T09:02:40.372Z,38.12
2018-05-21T09:05:07.934Z,38.82
2018-05-21T09:07:35.469Z,39.24
2018-05-21T09:10:03.015Z,38.72
2018-05-21T09:12:30.692Z,42.07
2018-05-21T09:14:58.224Z,42.62
2018-05-21T09:17:25.771Z,40.11
2018-05-21T09:19:53.311Z,39.13
2018-05-21T09:22:20.858Z,40.18
2018-05-21T09:24:48.419Z,41.01
2018-05-21T09:27:15.987Z,39.56
2018-05-21T09:29:43.578Z,38.22
2018-05-21T09:32:11.163Z,38.26
2018-05-21T09:34:38.724Z,38.10
2018-05-21T09:37:06.274Z,38.64
2018-05-21T09:39:33.864Z,39.43
2018-05-21T09:42:01.506Z,37.12
2018-05-21T09:44:28.991Z,38.10
2018-05-21T09:46:56.602Z,39.95
2018-05-21T09:49:24.199Z,40.20
2018-05-21T09:51:51.763Z,39.58
2018-05-21T09:54:19.298Z,40.73
2018-05-21T09:56:46.887Z,39.40
2018-05-21T09:59:14.453Z,38.90
2018-05-21T10:01:42.020Z,39.17
2018-05-21T10:04:10.080Z,38.58
2018-05-21T10:06:37.705Z,37.08
2018-05-21T10:09:06.320Z,36.67
2018-05-21T10:11:33.871Z,38.64
2018-05-21T10:14:01.449Z,39.05
2018-05-21T10:16:29.011Z,39.64
2018-05-21T10:18:56.556Z,37.68
2018-05-21T10:21:24.109Z,37.61
2018-05-21T10:23:51.682Z,37.96
2018-05-21T10:26:19.220Z,38.26
2018-05-21T10:28:46.764Z,37.38
2018-05-21T10:31:14.354Z,37.05
2018-05-21T10:33:42.251Z,37.34
2018-05-21T10:36:09.850Z,38.67
2018-05-21T10:38:37.480Z,38.03
2018-05-21T10:41:05.329Z,36.59
2018-05-21T10:43:32.926Z,36.54
2018-05-21T10:46:00.471Z,37.26
2018-05-21T10:48:28.019Z,35.78
2018-05-21T10:50:55.608Z,35.73
2018-05-21T10:53:23.467Z,37.86
2018-05-21T10:55:51.044Z,36.00
2018-05-21T10:58:18.603Z,35.75
2018-05-21T11:00:46.158Z,37.67
2018-05-21T11:03:13.753Z,35.77
2018-05-21T11:05:41.324Z,37.38
2018-05-21T11:08:09.097Z,37.17
2018-05-21T11:10:36.641Z,37.23
2018-05-21T11:13:04.182Z,35.82
2018-05-21T11:15:32.049Z,38.24
2018-05-21T11:17:59.716Z,33.43
2018-05-21T11:20:27.241Z,34.38
2018-05-21T11:22:54.782Z,34.32
2018-05-21T11:25:22.384Z,34.73
2018-05-21T11:27:49.944Z,36.22
2018-05-21T11:30:17.508Z,33.84
2018-05-21T11:32:45.091Z,33.94
2018-05-21T11:35:12.665Z,32.51
2018-05-21T11:37:40.226Z,30.82
2018-05-21T11:40:07.808Z,32.47
2018-05-21T11:42:35.368Z,30.28
2018-05-21T11:45:02.933Z,30.69
2018-05-21T11:47:30.478Z,30.46
2018-05-21T11:49:58.064Z,28.08
2018-05-21T11:52:25.591Z,27.79
2018-05-21T11:54:53.140Z,26.38
2018-05-21T11:57:20.728Z,23.08
2018-05-21T11:59:48.294Z,22.89
2018-05-21T12:02:15.907Z,21.32
2018-05-21T12:04:43.485Z,20.36
2018-05-21T12:07:11.225Z,19.51
2018-05-21T12:09:38.972Z,18.82
2018-05-21T12:12:06.540Z,19.03
2018-05-21T12:14:34.065Z,18.40
2018-05-21T12:17:01.692Z,17.68
2018-05-21T12:19:29.227Z,16.69
2018-05-21T12:21:56.765Z,17.59
2018-05-21T12:24:24.375Z,16.44
2018-05-21T12:26:51.976Z,16.07
2018-05-21T12:29:19.501Z,15.39
2018-05-21T12:31:47.115Z,15.13
2018-05-21T12:34:14.700Z,14.69
2018-05-21T12:36:42.273Z,14.52
2018-05-21T12:39:09.846Z,15.50
2018-05-21T12:41:37.452Z,13.33
2018-05-21T12:44:05.008Z,14.54
2018-05-21T12:46:32.835Z,13.22
2018-05-21T12:49:00.399Z,13.14
2018-05-21T12:51:28.033Z,14.35
2018-05-21T12:53:55.600Z,15.08
2018-05-21T12:56:23.153Z,15.12
2018-05-21T12:58:50.720Z,13.88
2018-05-21T13:01:18.288Z,13.75
2018-05-21T13:03:45.847Z,12.92
2018-05-21T13:06:13.381Z,12.92
2018-05-21T13:08:40.911Z,12.86
2018-05-21T13:11:08.574Z,13.02
2018-05-21T13:13:36.136Z,12.91
2018-05-21T13:16:03.662Z,11.25
2018-05-21T13:18:31.243Z,10.36
2018-05-21T13:20:59.389Z,10.81
2018-05-21T13:23:27.077Z,10.89
2018-05-21T13:25:54.625Z,10.21
2018-05-21T13:28:22.192Z,11.27
2018-05-21T13:30:49.775Z,11.36
2018-05-21T13:33:17.318Z,11.19
2018-05-21T13:35:44.850Z,12.67
2018-05-21T13:38:12.815Z,13.03
2018-05-21T13:40:40.397Z,12.73
2018-05-21T13:43:08.054Z,13.16
2018-05-21T13:45:35.553Z,12.03
2018-05-21T13:48:03.090Z,11.74
2018-05-21T13:50:30.651Z,14.05
2018-05-21T13:52:58.157Z,13.32
2018-05-21T13:55:25.761Z,14.08
2018-05-21T13:57:53.293Z,12.82
2018-05-21T14:00:20.882Z,11.19
2018-05-21T14:02:48.497Z,11.94
2018-05-21T14:05:16.056Z,11.96
2018-05-21T14:07:43.672Z,11.73
2018-05-21T14:10:11.222Z,11.40
2018-05-21T14:12:38.837Z,11.00
2018-05-21T14:15:06.348Z,10.35
2018-05-21T14:17:33.992Z,11.52
2018-05-21T14:20:01.556Z,9.68
2018-05-21T14:22:29.138Z,10.21
2018-05-21T14:24:56.675Z,10.72
2018-05-21T14:27:24.237Z,12.12
2018-05-21T14:29:51.909Z,11.51
2018-05-21T14:32:19.472Z,10.33
2018-05-21T14:34:47.004Z,13.43
2018-05-21T14:37:14.576Z,15.44
2018-05-21T14:39:42.153Z,14.54
2018-05-21T14:42:09.782Z,14.88
2018-05-21T14:44:37.392Z,16.39
2018-05-21T14:47:04.921Z,17.58
2018-05-21T14:49:32.460Z,15.02
2018-05-21T14:52:00.087Z,14.65
2018-05-21T14:54:27.670Z,14.50
2018-05-21T14:56:55.318Z,12.68
2018-05-21T14:59:22.964Z,12.49
2018-05-21T15:01:50.541Z,12.03
2018-05-21T15:04:18.103Z,14.11
2018-05-21T15:06:45.657Z,13.34
2018-05-21T15:09:13.230Z,14.38
2018-05-21T15:11:40.960Z,14.94
2018-05-21T15:14:08.522Z,17.28
2018-05-21T15:16:36.069Z,15.76
2018-05-21T15:19:03.611Z,15.28
2018-05-21T15:21:31.142Z,14.92
2018-05-21T15:23:58.709Z,13.78
2018-05-21T15:26:26.281Z,13.04
2018-05-21T15:28:53.841Z,12.81
2018-05-21T15:31:21.504Z,15.04
2018-05-21T15:33:49.321Z,16.02
2018-05-21T15:36:16.851Z,18.04
2018-05-21T15:38:44.476Z,20.14
2018-05-21T15:41:12.079Z,22.55
2018-05-21T15:43:39.636Z,22.80
2018-05-21T15:46:07.183Z,25.90
2018-05-21T15:51:30.760Z,28.90
2018-05-21T15:53:58.470Z,29.57
2018-05-21T15:56:26.322Z,30.50
2018-05-21T15:58:53.879Z,31.44
2018-05-21T16:01:21.447Z,31.79
2018-05-21T16:03:48.990Z,31.52
2018-05-21T16:06:16.549Z,31.29
2018-05-21T16:08:44.150Z,32.22
2018-05-21T16:11:11.718Z,31.70
2018-05-21T16:13:39.370Z,32.70
2018-05-21T16:16:06.893Z,31.82
2018-05-21T16:18:34.453Z,32.16
2018-05-21T16:21:02.121Z,30.80
2018-05-21T16:23:29.658Z,29.73
2018-05-21T16:25:57.238Z,27.57
2018-05-21T16:28:24.800Z,29.37
2018-05-21T16:30:52.381Z,30.62
2018-05-21T16:33:19.948Z,28.49
2018-05-21T16:35:47.690Z,28.36
2018-05-21T16:38:15.271Z,30.08
2018-05-21T16:40:42.842Z,30.56
2018-05-21T16:43:10.420Z,28.61
2018-05-21T16:45:38.051Z,28.68
2018-05-21T16:48:05.610Z,28.94
2018-05-21T16:50:33.172Z,25.44
2018-05-21T16:53:00.721Z,28.73
2018-05-21T16:55:28.319Z,28.21
2018-05-21T16:57:55.998Z,26.19
2018-05-21T17:00:23.642Z,24.95
2018-05-21T17:02:51.140Z,23.82
2018-05-21T17:05:18.708Z,26.01
2018-05-21T17:07:46.289Z,23.36
2018-05-21T17:10:13.854Z,22.43
2018-05-21T17:12:41.390Z,21.52
2018-05-21T17:15:08.953Z,23.93
2018-05-21T17:17:36.584Z,20.26
2018-05-21T17:20:04.197Z,22.61
2018-05-21T17:22:31.766Z,21.03
2018-05-21T17:24:59.323Z,22.40
2018-05-21T17:27:26.948Z,22.43
2018-05-21T17:29:54.494Z,20.53
2018-05-21T17:32:22.141Z,21.21
2018-05-21T17:34:49.823Z,19.21
2018-05-21T17:37:17.445Z,20.72
2018-05-21T17:39:44.998Z,19.91
2018-05-21T17:42:12.573Z,21.80
2018-05-21T17:44:40.142Z,20.60
2018-05-21T17:47:12.105Z,22.81
2018-05-21T17:49:39.731Z,20.87
2018-05-21T17:52:07.277Z,21.59
2018-05-21T17:54:34.897Z,21.68
2018-05-21T17:57:02.470Z,23.86
2018-05-21T17:59:30.017Z,26.64
2018-05-21T18:01:57.563Z,28.43
2018-05-21T18:04:25.132Z,29.56
2018-05-21T18:06:52.661Z,31.54
2018-05-21T18:09:20.247Z,31.68
2018-05-21T18:11:47.808Z,33.96
2018-05-21T18:14:15.367Z,34.76
2018-05-21T18:16:42.945Z,39.25
2018-05-21T18:19:10.504Z,36.86
2018-05-21T18:21:38.067Z,36.56
2018-05-21T18:24:07.711Z,38.48
2018-05-21T18:26:35.293Z,37.90
2018-05-21T18:29:03.006Z,39.97
2018-05-21T18:31:30.630Z,40.89
2018-05-21T18:33:58.173Z,43.32
2018-05-21T18:36:25.765Z,43.49
2018-05-21T18:38:53.343Z,42.91
2018-05-21T18:41:20.947Z,43.27
2018-05-21T18:43:48.517Z,44.21
2018-05-21T18:46:16.096Z,45.49
2018-05-21T18:48:43.729Z,45.67
2018-05-21T18:51:11.326Z,47.47
2018-05-21T18:53:38.916Z,47.63
2018-05-21T18:56:06.487Z,48.17
2018-05-21T18:58:34.191Z,47.83
2018-05-21T19:01:01.794Z,47.24
2018-05-21T19:03:29.399Z,48.73
2018-05-21T19:05:56.996Z,51.22
2018-05-21T19:08:24.587Z,50.90
2018-05-21T19:10:52.149Z,49.23
2018-05-21T19:13:19.720Z,51.11
2018-05-21T19:15:47.257Z,49.01
2018-05-21T19:18:14.797Z,52.00
2018-05-21T19:20:42.484Z,49.93
2018-05-21T19:23:10.025Z,49.38
2018-05-21T19:25:37.585Z,49.67
2018-05-21T19:28:05.156Z,48.60
2018-05-21T19:30:32.828Z,48.45
2018-05-21T19:33:00.428Z,49.73
2018-05-21T19:35:29.629Z,48.93
2018-05-21T19:37:57.249Z,49.06
2018-05-21T19:40:24.915Z,49.06
2018-05-21T19:42:52.511Z,49.77
2018-05-21T19:45:20.100Z,50.41
2018-05-21T19:47:47.700Z,51.99
2018-05-21T19:50:15.248Z,48.67
2018-05-21T19:52:42.840Z,50.23
2018-05-21T19:55:10.513Z,50.45
2018-05-21T19:57:38.175Z,50.64
2018-05-21T20:00:05.725Z,50.49
2018-05-21T20:02:33.305Z,55.31
2018-05-21T20:05:00.889Z,52.55
2018-05-21T20:07:28.539Z,50.31
2018-05-21T20:09:56.034Z,50.81
2018-05-21T20:12:23.779Z,51.50
2018-05-21T20:14:51.350Z,50.78
2018-05-21T20:17:18.958Z,52.85
2018-05-21T20:19:46.501Z,51.17
2018-05-21T20:22:14.054Z,51.50
2018-05-21T20:24:41.693Z,51.45
2018-05-21T20:27:09.317Z,53.38
2018-05-21T20:29:36.985Z,55.91
2018-05-21T20:32:04.610Z,52.48
2018-05-21T20:34:32.226Z,55.20
2018-05-21T20:36:59.848Z,52.80
2018-05-21T20:39:27.416Z,56.14
2018-05-21T20:41:54.965Z,56.50
2018-05-21T20:44:22.642Z,53.16
2018-05-21T20:46:51.190Z,54.58
2018-05-21T20:49:20.372Z,53.79
2018-05-21T20:51:48.875Z,54.15
2018-05-21T20:54:16.961Z,54.63
2018-05-21T20:56:44.609Z,55.24
2018-05-21T20:59:12.159Z,53.25
2018-05-21T21:01:39.837Z,52.95
2018-05-21T21:04:07.475Z,52.66
2018-05-21T21:06:35.158Z,51.99
2018-05-21T21:09:02.823Z,50.50
2018-05-21T21:11:30.455Z,56.67
2018-05-21T21:13:58.031Z,58.10
2018-05-21T21:16:25.707Z,55.08
2018-05-21T21:18:53.373Z,53.19
2018-05-21T21:21:20.967Z,53.19
2018-05-21T21:23:48.528Z,50.85
2018-05-21T21:26:16.183Z,55.39
2018-05-21T21:28:43.876Z,54.66
2018-05-21T21:31:11.467Z,54.00
2018-05-21T21:33:39.144Z,55.15
2018-05-21T21:36:06.845Z,54.17
2018-05-21T21:38:34.475Z,55.41
2018-05-21T21:41:02.160Z,54.10
2018-05-21T21:43:29.792Z,55.25
2018-05-21T21:45:57.422Z,55.70
2018-05-21T21:48:25.041Z,52.45
2018-05-21T21:50:52.743Z,55.54
2018-05-21T21:53:20.377Z,55.97
2018-05-21T21:55:48.038Z,55.20
2018-05-21T21:58:15.614Z,55.86
2018-05-21T22:00:43.350Z,56.05
2018-05-21T22:03:10.962Z,57.34
2018-05-21T22:05:38.573Z,53.91
2018-05-21T22:08:06.158Z,54.72
2018-05-21T22:10:33.713Z,56.46
2018-05-21T22:13:01.351Z,54.10
2018-05-21T22:15:28.901Z,54.96
2018-05-21T22:17:56.525Z,56.61
2018-05-21T22:20:24.185Z,56.69
2018-05-21T22:22:51.794Z,57.67
2018-05-21T22:25:19.361Z,56.28
2018-05-21T22:27:47.026Z,56.97
2018-05-21T22:30:14.615Z,55.64
2018-05-21T22:32:42.216Z,56.31
2018-05-21T22:35:09.810Z,57.19
2018-05-21T22:37:37.435Z,56.93
2018-05-21T22:40:05.004Z,57.29
2018-05-21T22:42:32.729Z,56.40
2018-05-21T22:45:00.397Z,56.77
2018-05-21T22:47:27.941Z,55.83
2018-05-21T22:49:55.501Z,56.98
2018-05-21T22:52:23.064Z,56.42
2018-05-21T22:54:50.598Z,56.43
2018-05-21T22:57:18.226Z,57.39
2018-05-21T22:59:45.814Z,56.59
2018-05-21T23:02:13.485Z,57.13
2018-05-21T23:04:41.078Z,56.39
2018-05-21T23:07:08.661Z,56.57
2018-05-21T23:09:36.235Z,57.27
2018-05-21T23:12:03.815Z,57.53
2018-05-21T23:14:31.520Z,58.92
2018-05-21T23:16:58.997Z,59.80
2018-05-21T23:19:26.632Z,58.95
2018-05-21T23:21:54.184Z,59.47
2018-05-21T23:24:21.774Z,59.55
2018-05-21T23:26:49.351Z,60.58
2018-05-21T23:29:16.911Z,60.19
2018-05-21T23:31:44.461Z,60.58
2018-05-21T23:34:12.016Z,61.52
2018-05-21T23:36:39.548Z,61.83
2018-05-21T23:39:07.131Z,63.22
2018-05-21T23:41:34.765Z,62.80
2018-05-21T23:44:02.302Z,62.17
2018-05-21T23:46:29.835Z,61.36
2018-05-21T23:48:57.369Z,60.31
2018-05-21T23:51:24.929Z,60.78
2018-05-21T23:53:52.489Z,61.42
2018-05-21T23:56:20.072Z,62.94
2018-05-21T23:58:47.676Z,63.69
